createdAt,value
2024-01-09T00:27:31.325Z,39.60
2024-01-09T00:57:34.312Z,48.15
2024-01-09T01:27:37.952Z,39.15
2024-01-09T01:57:41.261Z,53.13
2024-01-09T02:27:44.757Z,40.57
2024-01-09T02:57:48.355Z,47.25
2024-01-09T03:27:51.857Z,45.27
2024-01-09T03:57:55.772Z,40.20
2024-01-09T04:27:59.072Z,51.17
2024-01-09T04:58:02.760Z,56.80
2024-01-09T05:28:05.742Z,49.35
2024-01-09T05:58:09.323Z,56.83
2024-01-09T06:28:12.420Z,75.63
2024-01-09T06:58:15.951Z,66.00
2024-01-09T07:28:19.483Z,77.00
2024-01-09T07:58:23.602Z,68.17
2024-01-09T08:28:27.159Z,71.17
2024-01-09T08:58:31.030Z,67.27
2024-01-09T09:28:41.068Z,72.27
2024-01-09T09:58:54.451Z,52.43
2024-01-09T10:28:57.922Z,54.70
2024-01-09T10:59:01.626Z,50.55
2024-01-09T11:29:05.301Z,66.90
2024-01-09T11:59:08.782Z,50.07
2024-01-09T12:29:12.342Z,51.40
2024-01-09T12:59:16.096Z,50.93
2024-01-09T13:30:46.069Z,52.70
2024-01-09T13:59:43.305Z,44.85
2024-01-09T14:29:46.915Z,44.65
2024-01-09T14:59:50.065Z,51.00
2024-01-09T15:29:53.561Z,40.80
2024-01-09T15:59:57.153Z,44.30
2024-01-09T16:30:00.824Z,46.95
2024-01-09T17:00:04.622Z,45.40
2024-01-09T17:30:08.587Z,56.80
2024-01-09T18:00:12.310Z,62.97
2024-01-09T18:30:15.971Z,92.80
2024-01-09T19:00:19.609Z,133.20
2024-01-09T19:30:23.280Z,85.50
2024-01-09T20:00:26.234Z,87.07
2024-01-09T20:30:30.360Z,83.33
2024-01-09T21:00:37.515Z,105.53
2024-01-09T21:30:41.936Z,99.23
2024-01-09T22:00:46.304Z,95.53
2024-01-09T22:30:49.299Z,92.13
2024-01-09T23:00:53.924Z,99.35
2024-01-09T23:30:56.953Z,118.90
